Hauptseite
METAR-TAF:

METAR-TAF

Flughäfen :

Fliegerhorst Wittmundhafen

Wittmund, Deutschland

Breite: 53-33N, Länge: 007-40E, Höhe: 8 m

Beobachtung

Neuester Wetterbericht von vor 42 Minuten, um 15:20 UTC
Wind 6 kt aus Nord
Temperatur 23°C
Luftfeuchtigkeit 65%
Luftdruck 1025 hPa
Sichtweite 10 km oder mehr
Aufgelockert bewölkt in der Höhe von 4000 ft
Durchbrochene Bewölkung in der Höhe von 26000 ft

METAR: ETNT 231520Z 01006KT 9999 SCT040 BKN260 23/16 Q1025 BLU+

Zeit: 18:02 (16:02 UTC)

Prognose

Neuester Wetterbericht von vor 2 Stunden und 52 Minuten, um 13:10 UTC
Gültige Prognose vom 23 um 14 UTC bis 23 um 23 UTC
Wind 6 kt aus Nord
Sichtweite 10 km oder mehr
Aufgelockert bewölkt in der Höhe von 4000 ft
Durchbrochene Bewölkung in der Höhe von 26000 ft

TAF: ETNT 231310Z 2314/2323 35006KT 9999 NSW SCT040 BKN260 BY ETGL

Wetterbeobachtungen und Prognosen von mehr als 4000 Flughäfen (METAR und TAF Bericht).

Die verfügbaren Stationen werden durch gelbe und rote Markierungen auf der Karte dargestellt.

Führen Sie die Maus auf sie, um den Namen der Station zu sehen.

Darauf klicken, um die Beobachtung von Wetterbeobachtungen und Prognosen zu sehen.

Um die Karte zu ändern : klicken Sie auf den grünen Tasten mit einem schwarzen Kreuz Zum Vergrößern, auf den grünen Button mit einem Gedankenstrich zu verkleinern, oder auf die grünen Pfeile für benachbarte Karten.


METAR-TAF: